sim
Sign-in with your pilot id or email,
or register
Callsign
Passwort

Schedule Details

Flight Number: OEO3374
Departure: Dortmund Airport (EDLW) at 04:00
Arrival: Fuerteventura Airport (GCFV) at 08:45

Weather Information
Getting current METAR information for EDLW 160250Z AUTO 19007KT 9999 // NCD 09/M01 Q1025
Getting current METAR information for GCFV 160230Z AUTO 28005KT 9999 NCD 13/10 Q1018

Schedule Frequency

Route Map